Whitecourt Airport
CYZU : now visible

Airfield :











YOU CAN JOIN US ON...

 
LOGIN :

Register | Disclaimer

   EN    FR    IT 

 









Legend :    VFR   Marginal VFR   IFR   Intensive IFR   Very Intensive IFR
Visi :
Ceiling :
>= 8 km
>= 3000ft
5 to 8 km
1000 to 3000 ft
1500m to 5 km
500 to 1000 ft
800 to 1500m
200 to 500 ft
< 800m
< 200 ft
Symbols :   Thunderstorms  Fog  Heavy snow  Heavy precipitations  Wind > 20 kt







- Airport Elevation : 2567 ft
- IATA code : YZU


CYZU - Whitecourt

CURRENT METAR :
  • 201500Z 30013G21KT 15SM FEW025 FEW052TCU BKN110 09/07 A2984 RMK CF1TCU1AC4 SLP120 DENSITY ALT 2600FT

EXPIRED METARs :
  • 201300Z 28005KT 15SM FEW130 08/07 A2980 RMK AC2 SLP103 DENSITY ALT 2600FT

TAF TAF CYZU
Valid from the 20 at 14:00 until the 20 at 23:00 UTC


201410Z 2014/2023 30010KT P6SM SCT060 BKN120
TEMPO 2014/2016 P6SM -SHRA SCT030 BKN060 OVC120
FM201600 31012G22KT P6SM BKN060
TEMPO 2016/2018 SCT060
FM201800 31012G22KT P6SM FEW080 RMK NXT FCST BY 201900Z
No reported NOTAMs for that airfield.



MET'MAP, your aeronautical weather chart ! - Copyright ORBIFLY December 2007 - Disclaimer

ORBIFLY MET'MAP TEAM :

Programming & Development : Alexandra Zaïnal
Concept & Development : Baudouin d'Aumeries
Co-Development & Prog : Marc-Olivier Méhu
Technical & hardware support : Manuel Goepfert

Contact : metmap@orbifly.com




SOURCES & CREDITS :

   NOAA       Earth
Advisory